Terminal Aerodrome Forecast
Issued by NWS

Home | Current Version | Previous Version | Graphics & Text | Print | Product List | Glossary On
Versions: 1 2 3 4 5 6 7 8 9 10 11 12 13 14 15 16 17 18 19 20 21 22 23 24
532
FTUS43 KMPX 050538
TAFAXN
TAF
KAXN 050538Z 0506/0606 19004KT P6SM SCT250
     FM051100 17007KT P6SM OVC090
     FM051400 17007KT P6SM OVC040
     FM051700 20007KT 3SM -SN BR OVC020
     FM052200 27005KT P6SM BKN020=

USA.gov is the U.S. government's official web portal to all federal, state and local government web resources and services.